sensor_id;sensor_type;location;lat;lon;timestamp;temperature;humidity
13211;DHT22;6670;51.53087800;7.23266500;2023-12-29T00:00:26;11.20;99.90
13211;DHT22;6670;51.53087800;7.23266500;2023-12-29T00:02:54;11.20;99.90
13211;DHT22;6670;51.53087800;7.23266500;2023-12-29T00:05:21;11.20;99.90
13211;DHT22;6670;51.53087800;7.23266500;2023-12-29T00:07:48;11.10;99.90
13211;DHT22;6670;51.53087800;7.23266500;2023-12-29T00:10:17;11.10;99.90
13211;DHT22;6670;51.53087800;7.23266500;2023-12-29T00:12:44;11.20;99.90
13211;DHT22;6670;51.53087800;7.23266500;2023-12-29T00:15:12;11.20;99.90
13211;DHT22;6670;51.53087800;7.23266500;2023-12-29T00:17:39;11.20;99.90
13211;DHT22;6670;51.53087800;7.23266500;2023-12-29T00:20:08;11.20;99.90
13211;DHT22;6670;51.53087800;7.23266500;2023-12-29T00:22:35;11.20;99.90
13211;DHT22;6670;51.53087800;7.23266500;2023-12-29T00:25:03;11.20;99.90
13211;DHT22;6670;51.53087800;7.23266500;2023-12-29T00:27:32;11.20;99.90
13211;DHT22;6670;51.53087800;7.23266500;2023-12-29T00:30:00;11.10;99.90
13211;DHT22;6670;51.53087800;7.23266500;2023-12-29T00:32:27;11.20;99.90
13211;DHT22;6670;51.53087800;7.23266500;2023-12-29T00:34:55;11.20;99.90
13211;DHT22;6670;51.53087800;7.23266500;2023-12-29T00:37:22;11.20;99.90
13211;DHT22;6670;51.53087800;7.23266500;2023-12-29T00:39:49;11.20;99.90
13211;DHT22;6670;51.53087800;7.23266500;2023-12-29T00:42:36;11.20;99.90
13211;DHT22;6670;51.53087800;7.23266500;2023-12-29T00:45:05;11.20;99.90
13211;DHT22;6670;51.53087800;7.23266500;2023-12-29T00:47:33;11.20;99.90
13211;DHT22;6670;51.53087800;7.23266500;2023-12-29T00:50:01;11.20;99.90
13211;DHT22;6670;51.53087800;7.23266500;2023-12-29T00:52:28;11.20;99.90
13211;DHT22;6670;51.53087800;7.23266500;2023-12-29T00:54:56;11.10;99.90
13211;DHT22;6670;51.53087800;7.23266500;2023-12-29T00:57:23;11.20;99.90
13211;DHT22;6670;51.53087800;7.23266500;2023-12-29T00:59:52;11.20;99.90
13211;DHT22;6670;51.53087800;7.23266500;2023-12-29T01:02:19;11.20;99.90
13211;DHT22;6670;51.53087800;7.23266500;2023-12-29T01:04:47;11.20;99.90
13211;DHT22;6670;51.53087800;7.23266500;2023-12-29T01:07:14;11.20;99.90
13211;DHT22;6670;51.53087800;7.23266500;2023-12-29T01:09:41;11.10;99.90
13211;DHT22;6670;51.53087800;7.23266500;2023-12-29T01:12:09;11.20;99.90
13211;DHT22;6670;51.53087800;7.23266500;2023-12-29T01:14:36;11.20;99.90
13211;DHT22;6670;51.53087800;7.23266500;2023-12-29T01:17:05;11.20;99.90
13211;DHT22;6670;51.53087800;7.23266500;2023-12-29T01:19:33;11.20;99.90
13211;DHT22;6670;51.53087800;7.23266500;2023-12-29T01:22:01;11.20;99.90
13211;DHT22;6670;51.53087800;7.23266500;2023-12-29T01:24:28;11.20;99.90
13211;DHT22;6670;51.53087800;7.23266500;2023-12-29T01:26:57;11.20;99.90
13211;DHT22;6670;51.53087800;7.23266500;2023-12-29T01:29:25;11.20;99.90
13211;DHT22;6670;51.53087800;7.23266500;2023-12-29T01:31:52;11.20;99.90
13211;DHT22;6670;51.53087800;7.23266500;2023-12-29T01:34:21;11.20;99.90
13211;DHT22;6670;51.53087800;7.23266500;2023-12-29T01:36:48;11.20;99.90
13211;DHT22;6670;51.53087800;7.23266500;2023-12-29T01:39:16;11.20;99.90
13211;DHT22;6670;51.53087800;7.23266500;2023-12-29T01:41:43;11.10;99.90
13211;DHT22;6670;51.53087800;7.23266500;2023-12-29T01:44:28;11.20;99.90
13211;DHT22;6670;51.53087800;7.23266500;2023-12-29T01:46:58;11.10;99.90
13211;DHT22;6670;51.53087800;7.23266500;2023-12-29T01:49:28;11.20;99.90
13211;DHT22;6670;51.53087800;7.23266500;2023-12-29T01:51:57;11.20;99.90
13211;DHT22;6670;51.53087800;7.23266500;2023-12-29T01:54:29;11.10;99.90
13211;DHT22;6670;51.53087800;7.23266500;2023-12-29T01:56:59;11.20;99.90
13211;DHT22;6670;51.53087800;7.23266500;2023-12-29T01:59:27;11.10;99.90
13211;DHT22;6670;51.53087800;7.23266500;2023-12-29T02:01:55;11.00;99.90
13211;DHT22;6670;51.53087800;7.23266500;2023-12-29T02:04:24;10.90;99.90
13211;DHT22;6670;51.53087800;7.23266500;2023-12-29T02:06:53;10.90;99.90
13211;DHT22;6670;51.53087800;7.23266500;2023-12-29T02:09:21;10.80;99.90
13211;DHT22;6670;51.53087800;7.23266500;2023-12-29T02:11:49;10.80;99.90
13211;DHT22;6670;51.53087800;7.23266500;2023-12-29T02:14:17;10.80;99.90
13211;DHT22;6670;51.53087800;7.23266500;2023-12-29T02:16:52;10.70;99.90
13211;DHT22;6670;51.53087800;7.23266500;2023-12-29T02:19:37;10.70;99.90
13211;DHT22;6670;51.53087800;7.23266500;2023-12-29T02:22:08;10.60;99.90
13211;DHT22;6670;51.53087800;7.23266500;2023-12-29T02:24:36;10.50;99.90
13211;DHT22;6670;51.53087800;7.23266500;2023-12-29T02:27:17;10.40;99.90
13211;DHT22;6670;51.53087800;7.23266500;2023-12-29T02:29:51;10.40;99.90
13211;DHT22;6670;51.53087800;7.23266500;2023-12-29T02:32:22;10.20;99.90
13211;DHT22;6670;51.53087800;7.23266500;2023-12-29T02:34:50;10.20;99.90
13211;DHT22;6670;51.53087800;7.23266500;2023-12-29T02:37:19;10.10;99.90
13211;DHT22;6670;51.53087800;7.23266500;2023-12-29T02:39:47;10.10;99.90
13211;DHT22;6670;51.53087800;7.23266500;2023-12-29T02:42:16;10.10;99.90
13211;DHT22;6670;51.53087800;7.23266500;2023-12-29T02:44:43;10.10;99.90
13211;DHT22;6670;51.53087800;7.23266500;2023-12-29T02:47:10;10.00;99.90
13211;DHT22;6670;51.53087800;7.23266500;2023-12-29T02:49:38;10.10;99.90
13211;DHT22;6670;51.53087800;7.23266500;2023-12-29T02:52:05;10.00;99.90
13211;DHT22;6670;51.53087800;7.23266500;2023-12-29T02:54:33;10.00;99.90
13211;DHT22;6670;51.53087800;7.23266500;2023-12-29T02:57:00;10.00;99.90
13211;DHT22;6670;51.53087800;7.23266500;2023-12-29T02:59:30;10.00;99.90
13211;DHT22;6670;51.53087800;7.23266500;2023-12-29T03:01:57;9.90;99.90
13211;DHT22;6670;51.53087800;7.23266500;2023-12-29T03:04:25;9.90;99.90
13211;DHT22;6670;51.53087800;7.23266500;2023-12-29T03:06:52;10.00;99.90
13211;DHT22;6670;51.53087800;7.23266500;2023-12-29T03:09:20;10.00;99.90
13211;DHT22;6670;51.53087800;7.23266500;2023-12-29T03:11:47;10.00;99.90
13211;DHT22;6670;51.53087800;7.23266500;2023-12-29T03:14:15;10.10;99.90
13211;DHT22;6670;51.53087800;7.23266500;2023-12-29T03:16:43;10.10;99.90
13211;DHT22;6670;51.53087800;7.23266500;2023-12-29T03:19:11;10.10;99.90
13211;DHT22;6670;51.53087800;7.23266500;2023-12-29T03:21:39;10.10;99.90
13211;DHT22;6670;51.53087800;7.23266500;2023-12-29T03:24:07;10.20;99.90
13211;DHT22;6670;51.53087800;7.23266500;2023-12-29T03:26:34;10.20;99.90
13211;DHT22;6670;51.53087800;7.23266500;2023-12-29T03:29:01;10.20;99.90
13211;DHT22;6670;51.53087800;7.23266500;2023-12-29T03:31:29;10.20;99.90
13211;DHT22;6670;51.53087800;7.23266500;2023-12-29T03:33:58;10.20;99.90
13211;DHT22;6670;51.53087800;7.23266500;2023-12-29T03:36:25;10.30;99.90
13211;DHT22;6670;51.53087800;7.23266500;2023-12-29T03:38:52;10.30;99.90
13211;DHT22;6670;51.53087800;7.23266500;2023-12-29T03:41:20;10.30;99.90
13211;DHT22;6670;51.53087800;7.23266500;2023-12-29T03:43:47;10.30;99.90
13211;DHT22;6670;51.53087800;7.23266500;2023-12-29T03:46:16;10.30;99.90
13211;DHT22;6670;51.53087800;7.23266500;2023-12-29T03:48:44;10.40;99.90
13211;DHT22;6670;51.53087800;7.23266500;2023-12-29T03:51:14;10.40;99.90
13211;DHT22;6670;51.53087800;7.23266500;2023-12-29T03:53:41;10.40;99.90
13211;DHT22;6670;51.53087800;7.23266500;2023-12-29T03:56:14;10.40;99.90
13211;DHT22;6670;51.53087800;7.23266500;2023-12-29T03:58:41;10.40;99.90
13211;DHT22;6670;51.53087800;7.23266500;2023-12-29T04:01:09;10.40;99.90
13211;DHT22;6670;51.53087800;7.23266500;2023-12-29T04:03:37;10.40;99.90
13211;DHT22;6670;51.53087800;7.23266500;2023-12-29T04:06:05;10.50;99.90
13211;DHT22;6670;51.53087800;7.23266500;2023-12-29T04:08:34;10.40;99.90
13211;DHT22;6670;51.53087800;7.23266500;2023-12-29T04:11:02;10.40;99.90
13211;DHT22;6670;51.53087800;7.23266500;2023-12-29T04:13:30;10.50;99.90
13211;DHT22;6670;51.53087800;7.23266500;2023-12-29T04:15:58;10.50;99.90
13211;DHT22;6670;51.53087800;7.23266500;2023-12-29T04:18:25;10.50;99.90
13211;DHT22;6670;51.53087800;7.23266500;2023-12-29T04:20:53;10.50;99.90
13211;DHT22;6670;51.53087800;7.23266500;2023-12-29T04:23:20;10.50;99.90
13211;DHT22;6670;51.53087800;7.23266500;2023-12-29T04:25:49;10.50;99.90
13211;DHT22;6670;51.53087800;7.23266500;2023-12-29T04:28:16;10.50;99.90
13211;DHT22;6670;51.53087800;7.23266500;2023-12-29T04:30:44;10.50;99.90
13211;DHT22;6670;51.53087800;7.23266500;2023-12-29T04:33:11;10.50;99.90
13211;DHT22;6670;51.53087800;7.23266500;2023-12-29T04:35:39;10.50;99.90
13211;DHT22;6670;51.53087800;7.23266500;2023-12-29T04:38:06;10.50;99.90
13211;DHT22;6670;51.53087800;7.23266500;2023-12-29T04:40:34;10.60;99.90
13211;DHT22;6670;51.53087800;7.23266500;2023-12-29T04:43:03;10.60;99.90
13211;DHT22;6670;51.53087800;7.23266500;2023-12-29T04:45:31;10.60;99.90
13211;DHT22;6670;51.53087800;7.23266500;2023-12-29T04:47:58;10.60;99.90
13211;DHT22;6670;51.53087800;7.23266500;2023-12-29T04:50:26;10.70;99.90
13211;DHT22;6670;51.53087800;7.23266500;2023-12-29T04:52:53;10.70;99.90
13211;DHT22;6670;51.53087800;7.23266500;2023-12-29T04:55:21;10.70;99.90
13211;DHT22;6670;51.53087800;7.23266500;2023-12-29T05:01:38;10.70;99.90
13211;DHT22;6670;51.53087800;7.23266500;2023-12-29T05:04:05;10.70;99.90
13211;DHT22;6670;51.53087800;7.23266500;2023-12-29T05:06:32;10.70;99.90
13211;DHT22;6670;51.53087800;7.23266500;2023-12-29T05:09:00;10.70;99.90
13211;DHT22;6670;51.53087800;7.23266500;2023-12-29T05:11:27;10.80;99.90
13211;DHT22;6670;51.53087800;7.23266500;2023-12-29T05:13:54;10.80;99.90
13211;DHT22;6670;51.53087800;7.23266500;2023-12-29T05:16:22;10.70;99.90
13211;DHT22;6670;51.53087800;7.23266500;2023-12-29T05:18:50;10.80;99.90
13211;DHT22;6670;51.53087800;7.23266500;2023-12-29T05:21:19;10.70;99.90
13211;DHT22;6670;51.53087800;7.23266500;2023-12-29T05:23:47;10.70;99.90
13211;DHT22;6670;51.53087800;7.23266500;2023-12-29T05:26:15;10.70;99.90
13211;DHT22;6670;51.53087800;7.23266500;2023-12-29T05:28:42;10.70;99.90
13211;DHT22;6670;51.53087800;7.23266500;2023-12-29T05:31:09;10.70;99.90
13211;DHT22;6670;51.53087800;7.23266500;2023-12-29T05:33:37;10.70;99.90
13211;DHT22;6670;51.53087800;7.23266500;2023-12-29T05:36:10;10.70;99.90
13211;DHT22;6670;51.53087800;7.23266500;2023-12-29T05:38:38;10.70;99.90
13211;DHT22;6670;51.53087800;7.23266500;2023-12-29T05:41:07;10.70;99.90
13211;DHT22;6670;51.53087800;7.23266500;2023-12-29T05:43:34;10.70;99.90
13211;DHT22;6670;51.53087800;7.23266500;2023-12-29T05:46:02;10.70;99.90
13211;DHT22;6670;51.53087800;7.23266500;2023-12-29T05:48:30;10.70;99.90
13211;DHT22;6670;51.53087800;7.23266500;2023-12-29T05:50:57;10.70;99.90
13211;DHT22;6670;51.53087800;7.23266500;2023-12-29T05:53:26;10.70;99.90
13211;DHT22;6670;51.53087800;7.23266500;2023-12-29T05:55:53;10.80;99.90
13211;DHT22;6670;51.53087800;7.23266500;2023-12-29T05:58:21;10.70;99.90
13211;DHT22;6670;51.53087800;7.23266500;2023-12-29T06:00:49;10.70;99.90
13211;DHT22;6670;51.53087800;7.23266500;2023-12-29T06:03:16;10.80;99.90
13211;DHT22;6670;51.53087800;7.23266500;2023-12-29T06:05:43;10.80;99.90
13211;DHT22;6670;51.53087800;7.23266500;2023-12-29T06:08:11;10.80;99.90
13211;DHT22;6670;51.53087800;7.23266500;2023-12-29T06:10:40;10.80;99.90
13211;DHT22;6670;51.53087800;7.23266500;2023-12-29T06:13:07;10.80;99.90
13211;DHT22;6670;51.53087800;7.23266500;2023-12-29T06:15:35;10.80;99.90
13211;DHT22;6670;51.53087800;7.23266500;2023-12-29T06:18:03;10.80;99.90
13211;DHT22;6670;51.53087800;7.23266500;2023-12-29T06:20:31;10.80;99.90
13211;DHT22;6670;51.53087800;7.23266500;2023-12-29T06:22:59;10.70;99.90
13211;DHT22;6670;51.53087800;7.23266500;2023-12-29T06:25:27;10.80;99.90
13211;DHT22;6670;51.53087800;7.23266500;2023-12-29T06:27:56;10.80;99.90
13211;DHT22;6670;51.53087800;7.23266500;2023-12-29T06:30:23;10.80;99.90
13211;DHT22;6670;51.53087800;7.23266500;2023-12-29T06:32:51;10.80;99.90
13211;DHT22;6670;51.53087800;7.23266500;2023-12-29T06:35:18;10.80;99.90
13211;DHT22;6670;51.53087800;7.23266500;2023-12-29T06:37:46;10.80;99.90
13211;DHT22;6670;51.53087800;7.23266500;2023-12-29T06:40:13;10.80;99.90
13211;DHT22;6670;51.53087800;7.23266500;2023-12-29T06:42:41;10.80;99.90
13211;DHT22;6670;51.53087800;7.23266500;2023-12-29T06:45:10;10.80;99.90
13211;DHT22;6670;51.53087800;7.23266500;2023-12-29T06:47:37;10.80;99.90
13211;DHT22;6670;51.53087800;7.23266500;2023-12-29T06:50:05;10.80;99.90
13211;DHT22;6670;51.53087800;7.23266500;2023-12-29T06:52:35;10.80;99.90
13211;DHT22;6670;51.53087800;7.23266500;2023-12-29T06:55:03;10.70;99.90
13211;DHT22;6670;51.53087800;7.23266500;2023-12-29T06:57:31;10.80;99.90
13211;DHT22;6670;51.53087800;7.23266500;2023-12-29T06:59:58;10.80;99.90
13211;DHT22;6670;51.53087800;7.23266500;2023-12-29T07:02:27;11.20;99.90
13211;DHT22;6670;51.53087800;7.23266500;2023-12-29T07:04:55;11.00;99.90
13211;DHT22;6670;51.53087800;7.23266500;2023-12-29T07:07:22;11.20;99.90
13211;DHT22;6670;51.53087800;7.23266500;2023-12-29T07:09:50;11.00;99.90
13211;DHT22;6670;51.53087800;7.23266500;2023-12-29T07:12:18;10.80;99.90
13211;DHT22;6670;51.53087800;7.23266500;2023-12-29T07:14:47;10.80;99.90
13211;DHT22;6670;51.53087800;7.23266500;2023-12-29T07:17:53;10.80;99.90
13211;DHT22;6670;51.53087800;7.23266500;2023-12-29T07:20:24;10.70;99.90
13211;DHT22;6670;51.53087800;7.23266500;2023-12-29T07:22:52;10.80;99.90
13211;DHT22;6670;51.53087800;7.23266500;2023-12-29T07:25:19;10.80;99.90
13211;DHT22;6670;51.53087800;7.23266500;2023-12-29T07:27:47;10.70;99.90
13211;DHT22;6670;51.53087800;7.23266500;2023-12-29T07:30:15;10.60;99.90
13211;DHT22;6670;51.53087800;7.23266500;2023-12-29T07:32:43;10.50;99.90
13211;DHT22;6670;51.53087800;7.23266500;2023-12-29T07:35:12;10.50;99.90
13211;DHT22;6670;51.53087800;7.23266500;2023-12-29T07:37:43;10.40;99.90
13211;DHT22;6670;51.53087800;7.23266500;2023-12-29T07:40:11;10.30;99.90
13211;DHT22;6670;51.53087800;7.23266500;2023-12-29T07:42:39;10.30;99.90
13211;DHT22;6670;51.53087800;7.23266500;2023-12-29T07:48:55;10.20;99.90
13211;DHT22;6670;51.53087800;7.23266500;2023-12-29T07:51:24;10.20;99.90
13211;DHT22;6670;51.53087800;7.23266500;2023-12-29T07:53:51;10.10;99.90
13211;DHT22;6670;51.53087800;7.23266500;2023-12-29T07:56:18;10.10;99.90
13211;DHT22;6670;51.53087800;7.23266500;2023-12-29T07:58:46;10.10;99.90
13211;DHT22;6670;51.53087800;7.23266500;2023-12-29T08:01:14;10.10;99.90
13211;DHT22;6670;51.53087800;7.23266500;2023-12-29T08:03:41;10.10;99.90
13211;DHT22;6670;51.53087800;7.23266500;2023-12-29T08:06:08;10.00;99.90
13211;DHT22;6670;51.53087800;7.23266500;2023-12-29T08:08:37;10.10;99.90
13211;DHT22;6670;51.53087800;7.23266500;2023-12-29T08:11:06;10.10;99.90
13211;DHT22;6670;51.53087800;7.23266500;2023-12-29T08:13:39;10.10;99.90
13211;DHT22;6670;51.53087800;7.23266500;2023-12-29T08:16:07;10.10;99.90
13211;DHT22;6670;51.53087800;7.23266500;2023-12-29T08:18:34;10.10;99.90
13211;DHT22;6670;51.53087800;7.23266500;2023-12-29T08:21:02;10.10;99.90
13211;DHT22;6670;51.53087800;7.23266500;2023-12-29T08:23:30;10.10;99.90
13211;DHT22;6670;51.53087800;7.23266500;2023-12-29T08:25:59;10.20;99.90
13211;DHT22;6670;51.53087800;7.23266500;2023-12-29T08:28:26;10.20;99.90
13211;DHT22;6670;51.53087800;7.23266500;2023-12-29T08:30:54;10.30;99.90
13211;DHT22;6670;51.53087800;7.23266500;2023-12-29T08:33:22;10.30;99.90
13211;DHT22;6670;51.53087800;7.23266500;2023-12-29T08:35:49;10.20;99.90
13211;DHT22;6670;51.53087800;7.23266500;2023-12-29T08:38:17;10.20;99.90
13211;DHT22;6670;51.53087800;7.23266500;2023-12-29T08:44:03;10.30;99.90
13211;DHT22;6670;51.53087800;7.23266500;2023-12-29T08:46:31;10.30;99.90
13211;DHT22;6670;51.53087800;7.23266500;2023-12-29T08:48:58;10.30;99.90
13211;DHT22;6670;51.53087800;7.23266500;2023-12-29T08:51:27;10.20;99.90
13211;DHT22;6670;51.53087800;7.23266500;2023-12-29T08:53:55;10.30;99.90
13211;DHT22;6670;51.53087800;7.23266500;2023-12-29T08:56:23;10.30;99.90
13211;DHT22;6670;51.53087800;7.23266500;2023-12-29T08:58:50;10.30;99.90
13211;DHT22;6670;51.53087800;7.23266500;2023-12-29T09:01:20;10.30;99.90
13211;DHT22;6670;51.53087800;7.23266500;2023-12-29T09:03:47;10.30;99.90
13211;DHT22;6670;51.53087800;7.23266500;2023-12-29T09:06:15;10.40;99.90
13211;DHT22;6670;51.53087800;7.23266500;2023-12-29T09:08:42;10.40;99.90
13211;DHT22;6670;51.53087800;7.23266500;2023-12-29T09:11:10;10.50;99.90
13211;DHT22;6670;51.53087800;7.23266500;2023-12-29T09:13:37;10.50;99.90
13211;DHT22;6670;51.53087800;7.23266500;2023-12-29T09:16:05;10.40;99.90
13211;DHT22;6670;51.53087800;7.23266500;2023-12-29T09:18:34;10.40;99.90
13211;DHT22;6670;51.53087800;7.23266500;2023-12-29T09:21:01;10.50;99.90
13211;DHT22;6670;51.53087800;7.23266500;2023-12-29T09:23:29;10.50;99.90
13211;DHT22;6670;51.53087800;7.23266500;2023-12-29T09:25:56;10.50;99.90
13211;DHT22;6670;51.53087800;7.23266500;2023-12-29T09:28:24;10.50;99.90
13211;DHT22;6670;51.53087800;7.23266500;2023-12-29T09:30:51;10.50;99.90
13211;DHT22;6670;51.53087800;7.23266500;2023-12-29T09:33:19;10.50;99.90
13211;DHT22;6670;51.53087800;7.23266500;2023-12-29T09:35:48;10.50;99.90
13211;DHT22;6670;51.53087800;7.23266500;2023-12-29T09:38:16;10.50;99.90
13211;DHT22;6670;51.53087800;7.23266500;2023-12-29T09:40:43;10.40;99.90
13211;DHT22;6670;51.53087800;7.23266500;2023-12-29T09:43:12;10.40;99.90
13211;DHT22;6670;51.53087800;7.23266500;2023-12-29T09:45:42;10.50;99.90
13211;DHT22;6670;51.53087800;7.23266500;2023-12-29T09:48:15;10.50;99.90
13211;DHT22;6670;51.53087800;7.23266500;2023-12-29T09:50:46;10.50;99.90
13211;DHT22;6670;51.53087800;7.23266500;2023-12-29T09:53:15;10.50;99.90
13211;DHT22;6670;51.53087800;7.23266500;2023-12-29T09:55:45;10.50;99.90
13211;DHT22;6670;51.53087800;7.23266500;2023-12-29T09:58:13;10.50;99.90
13211;DHT22;6670;51.53087800;7.23266500;2023-12-29T10:00:42;10.60;99.90
13211;DHT22;6670;51.53087800;7.23266500;2023-12-29T10:03:10;10.50;99.90
13211;DHT22;6670;51.53087800;7.23266500;2023-12-29T10:05:37;10.40;99.90
13211;DHT22;6670;51.53087800;7.23266500;2023-12-29T10:08:05;10.50;99.90
13211;DHT22;6670;51.53087800;7.23266500;2023-12-29T10:10:38;10.50;99.90
13211;DHT22;6670;51.53087800;7.23266500;2023-12-29T10:13:09;10.40;99.90
13211;DHT22;6670;51.53087800;7.23266500;2023-12-29T10:15:44;10.50;99.90
13211;DHT22;6670;51.53087800;7.23266500;2023-12-29T10:18:23;10.60;99.90
13211;DHT22;6670;51.53087800;7.23266500;2023-12-29T10:20:59;10.50;99.90
13211;DHT22;6670;51.53087800;7.23266500;2023-12-29T10:23:37;10.40;99.90
13211;DHT22;6670;51.53087800;7.23266500;2023-12-29T10:26:28;10.40;99.90
13211;DHT22;6670;51.53087800;7.23266500;2023-12-29T10:28:56;10.50;99.90
13211;DHT22;6670;51.53087800;7.23266500;2023-12-29T10:31:31;10.50;99.90
13211;DHT22;6670;51.53087800;7.23266500;2023-12-29T10:34:19;10.40;99.90
13211;DHT22;6670;51.53087800;7.23266500;2023-12-29T10:36:54;10.40;99.90
13211;DHT22;6670;51.53087800;7.23266500;2023-12-29T10:39:22;10.40;99.90
13211;DHT22;6670;51.53087800;7.23266500;2023-12-29T10:42:02;10.50;99.90
13211;DHT22;6670;51.53087800;7.23266500;2023-12-29T10:44:30;10.40;99.90
13211;DHT22;6670;51.53087800;7.23266500;2023-12-29T10:46:58;10.50;99.90
13211;DHT22;6670;51.53087800;7.23266500;2023-12-29T10:49:25;10.50;99.90
13211;DHT22;6670;51.53087800;7.23266500;2023-12-29T10:52:11;10.50;99.90
13211;DHT22;6670;51.53087800;7.23266500;2023-12-29T10:54:40;10.50;99.90
13211;DHT22;6670;51.53087800;7.23266500;2023-12-29T10:57:15;10.50;99.90
13211;DHT22;6670;51.53087800;7.23266500;2023-12-29T10:59:42;10.60;99.90
13211;DHT22;6670;51.53087800;7.23266500;2023-12-29T11:02:12;10.50;99.90
13211;DHT22;6670;51.53087800;7.23266500;2023-12-29T11:04:49;10.60;99.90
13211;DHT22;6670;51.53087800;7.23266500;2023-12-29T11:07:31;10.70;99.90
13211;DHT22;6670;51.53087800;7.23266500;2023-12-29T11:10:01;10.70;99.90
13211;DHT22;6670;51.53087800;7.23266500;2023-12-29T11:12:32;10.60;99.90
13211;DHT22;6670;51.53087800;7.23266500;2023-12-29T11:15:02;10.80;99.90
13211;DHT22;6670;51.53087800;7.23266500;2023-12-29T11:17:30;10.80;99.90
13211;DHT22;6670;51.53087800;7.23266500;2023-12-29T11:19:59;10.80;99.90
13211;DHT22;6670;51.53087800;7.23266500;2023-12-29T11:22:28;10.90;99.90
13211;DHT22;6670;51.53087800;7.23266500;2023-12-29T11:24:56;10.90;99.90
13211;DHT22;6670;51.53087800;7.23266500;2023-12-29T11:27:27;10.90;99.90
13211;DHT22;6670;51.53087800;7.23266500;2023-12-29T11:30:03;10.90;99.90
13211;DHT22;6670;51.53087800;7.23266500;2023-12-29T11:32:43;10.90;99.90
13211;DHT22;6670;51.53087800;7.23266500;2023-12-29T11:35:15;10.90;99.90
13211;DHT22;6670;51.53087800;7.23266500;2023-12-29T11:37:58;10.90;99.90
13211;DHT22;6670;51.53087800;7.23266500;2023-12-29T11:40:30;11.00;99.90
13211;DHT22;6670;51.53087800;7.23266500;2023-12-29T11:43:05;11.00;99.90
13211;DHT22;6670;51.53087800;7.23266500;2023-12-29T11:45:42;11.00;99.90
13211;DHT22;6670;51.53087800;7.23266500;2023-12-29T11:48:10;11.10;99.90
13211;DHT22;6670;51.53087800;7.23266500;2023-12-29T11:50:39;11.10;99.90
13211;DHT22;6670;51.53087800;7.23266500;2023-12-29T11:53:07;11.10;99.90
13211;DHT22;6670;51.53087800;7.23266500;2023-12-29T11:55:36;11.10;99.90
13211;DHT22;6670;51.53087800;7.23266500;2023-12-29T12:00:51;11.10;99.90
13211;DHT22;6670;51.53087800;7.23266500;2023-12-29T12:03:24;11.10;99.90
13211;DHT22;6670;51.53087800;7.23266500;2023-12-29T12:05:59;11.20;99.90
13211;DHT22;6670;51.53087800;7.23266500;2023-12-29T12:08:31;11.20;99.90
13211;DHT22;6670;51.53087800;7.23266500;2023-12-29T12:14:07;11.20;99.90
13211;DHT22;6670;51.53087800;7.23266500;2023-12-29T12:16:49;11.20;99.90
13211;DHT22;6670;51.53087800;7.23266500;2023-12-29T12:19:17;11.20;99.90
13211;DHT22;6670;51.53087800;7.23266500;2023-12-29T12:21:47;11.10;99.90
13211;DHT22;6670;51.53087800;7.23266500;2023-12-29T12:24:34;11.20;99.90
13211;DHT22;6670;51.53087800;7.23266500;2023-12-29T12:27:03;11.20;99.90
13211;DHT22;6670;51.53087800;7.23266500;2023-12-29T12:29:30;11.20;99.90
13211;DHT22;6670;51.53087800;7.23266500;2023-12-29T12:31:59;11.20;99.90
13211;DHT22;6670;51.53087800;7.23266500;2023-12-29T12:34:39;11.20;99.90
13211;DHT22;6670;51.53087800;7.23266500;2023-12-29T12:37:06;11.20;99.90
13211;DHT22;6670;51.53087800;7.23266500;2023-12-29T12:39:38;11.20;99.90
13211;DHT22;6670;51.53087800;7.23266500;2023-12-29T12:42:05;11.10;99.90
13211;DHT22;6670;51.53087800;7.23266500;2023-12-29T12:44:32;11.10;99.90
13211;DHT22;6670;51.53087800;7.23266500;2023-12-29T12:47:06;11.10;99.90
13211;DHT22;6670;51.53087800;7.23266500;2023-12-29T12:49:35;11.20;99.90
13211;DHT22;6670;51.53087800;7.23266500;2023-12-29T12:52:03;11.10;99.90
13211;DHT22;6670;51.53087800;7.23266500;2023-12-29T12:54:31;11.20;99.90
13211;DHT22;6670;51.53087800;7.23266500;2023-12-29T12:56:58;11.20;99.90
13211;DHT22;6670;51.53087800;7.23266500;2023-12-29T12:59:27;11.10;99.90
13211;DHT22;6670;51.53087800;7.23266500;2023-12-29T13:01:55;11.10;99.90
13211;DHT22;6670;51.53087800;7.23266500;2023-12-29T13:04:24;11.10;99.90
13211;DHT22;6670;51.53087800;7.23266500;2023-12-29T13:06:52;11.10;99.90
13211;DHT22;6670;51.53087800;7.23266500;2023-12-29T13:09:19;11.00;99.90
13211;DHT22;6670;51.53087800;7.23266500;2023-12-29T13:11:50;10.90;99.90
13211;DHT22;6670;51.53087800;7.23266500;2023-12-29T13:14:21;10.80;99.90
13211;DHT22;6670;51.53087800;7.23266500;2023-12-29T13:16:49;10.80;99.90
13211;DHT22;6670;51.53087800;7.23266500;2023-12-29T13:19:18;10.70;99.90
13211;DHT22;6670;51.53087800;7.23266500;2023-12-29T13:21:48;10.80;99.90
13211;DHT22;6670;51.53087800;7.23266500;2023-12-29T13:24:15;10.80;99.90
13211;DHT22;6670;51.53087800;7.23266500;2023-12-29T13:26:44;10.80;99.90
13211;DHT22;6670;51.53087800;7.23266500;2023-12-29T13:29:14;10.80;99.90
13211;DHT22;6670;51.53087800;7.23266500;2023-12-29T13:31:42;10.80;99.90
13211;DHT22;6670;51.53087800;7.23266500;2023-12-29T13:34:14;10.80;99.90
13211;DHT22;6670;51.53087800;7.23266500;2023-12-29T13:37:16;10.80;99.90
13211;DHT22;6670;51.53087800;7.23266500;2023-12-29T13:39:52;10.80;99.90
13211;DHT22;6670;51.53087800;7.23266500;2023-12-29T13:42:21;10.90;99.90
13211;DHT22;6670;51.53087800;7.23266500;2023-12-29T13:44:50;10.90;99.90
13211;DHT22;6670;51.53087800;7.23266500;2023-12-29T13:47:20;10.90;99.90
13211;DHT22;6670;51.53087800;7.23266500;2023-12-29T13:49:48;10.90;99.90
13211;DHT22;6670;51.53087800;7.23266500;2023-12-29T13:52:18;10.90;99.90
13211;DHT22;6670;51.53087800;7.23266500;2023-12-29T13:54:46;10.80;99.90
13211;DHT22;6670;51.53087800;7.23266500;2023-12-29T13:57:14;10.80;99.90
13211;DHT22;6670;51.53087800;7.23266500;2023-12-29T13:59:41;10.90;99.90
13211;DHT22;6670;51.53087800;7.23266500;2023-12-29T14:02:28;10.90;99.90